Poco Verde, Brazil
Current Conditions -  °F | °C
As of 4:00 AM on Monday 22 Dec 2014 (Local Time) from SBAR Reporting Station
Scattered Clouds Scattered Clouds  
Wind Chill: 75°   Ceiling: Unl
Heat Index: 75°   Visibility: 6mi
Dew Point: 72°   Wind: 5mph
Humidity: 89%   Direction: 100°E
Pressure: 29.91"   Gusts: NA
Location:  10.71°S, 38.18°W
Report Text: SBAR 220700Z 10004KT 9999 SCT017 24/22 Q1013
Loading
Personal Weather Stations






























Interactive Weather Map New forecast layout! Learn more

10-Day Weather Forecast

Advertisements
Track Severe Weather on mobile